createdAt,value
2019-01-20T00:00:16.883Z,81.13
2019-01-20T00:02:44.317Z,84.27
2019-01-20T00:05:13.047Z,92.00
2019-01-20T00:07:40.552Z,91.63
2019-01-20T00:10:09.107Z,95.80
2019-01-20T00:12:36.535Z,106.17
2019-01-20T00:15:05.763Z,116.47
2019-01-20T00:17:33.243Z,118.60
2019-01-20T00:20:00.805Z,119.67
2019-01-20T00:22:28.283Z,117.03
2019-01-20T00:24:55.795Z,113.93
2019-01-20T00:27:23.279Z,117.40
2019-01-20T00:29:50.826Z,117.80
2019-01-20T00:32:18.269Z,114.63
2019-01-20T00:34:45.767Z,110.20
2019-01-20T00:37:13.128Z,114.07
2019-01-20T00:39:40.641Z,120.77
2019-01-20T00:42:08.152Z,118.13
2019-01-20T00:44:35.694Z,125.30
2019-01-20T00:47:03.173Z,125.30
2019-01-20T00:49:30.793Z,131.77
2019-01-20T00:51:58.309Z,128.87
2019-01-20T00:54:25.876Z,132.20
2019-01-20T00:56:53.238Z,133.07
2019-01-20T00:59:20.650Z,135.10
2019-01-20T01:01:48.211Z,132.67
2019-01-20T01:04:15.628Z,137.07
2019-01-20T01:06:43.172Z,132.37
2019-01-20T01:09:10.680Z,131.53
2019-01-20T01:11:38.250Z,127.53
2019-01-20T01:14:05.728Z,133.87
2019-01-20T01:16:33.244Z,130.17
2019-01-20T01:19:00.689Z,130.33
2019-01-20T01:21:28.187Z,126.07
2019-01-20T01:23:55.709Z,123.63
2019-01-20T01:26:24.803Z,129.87
2019-01-20T01:28:56.704Z,129.40
2019-01-20T01:31:24.216Z,116.20
2019-01-20T01:33:53.324Z,113.67
2019-01-20T01:36:22.416Z,111.60
2019-01-20T01:38:51.879Z,100.43
2019-01-20T01:41:19.796Z,104.07
2019-01-20T01:43:47.287Z,104.13
2019-01-20T01:46:14.704Z,106.73
2019-01-20T01:48:42.311Z,104.73
2019-01-20T01:51:12.252Z,103.77
2019-01-20T01:53:39.788Z,103.00
2019-01-20T01:56:09.728Z,104.83
2019-01-20T01:58:37.349Z,106.50
2019-01-20T02:01:04.808Z,103.87
2019-01-20T02:03:37.213Z,114.60
2019-01-20T02:06:04.724Z,105.90
2019-01-20T02:08:32.195Z,111.60
2019-01-20T02:10:59.932Z,111.30
2019-01-20T02:13:27.406Z,114.77
2019-01-20T02:15:55.127Z,107.77
2019-01-20T02:18:22.600Z,106.60
2019-01-20T02:20:50.143Z,102.80
2019-01-20T02:23:17.569Z,110.60
2019-01-20T02:25:45.019Z,107.03
2019-01-20T02:28:12.555Z,103.43
2019-01-20T02:30:39.989Z,102.50
2019-01-20T02:33:07.501Z,108.47
2019-01-20T02:35:35.150Z,107.37
2019-01-20T02:38:02.520Z,111.97
2019-01-20T02:40:30.006Z,107.60
2019-01-20T02:42:57.462Z,109.80
2019-01-20T02:45:25.469Z,109.00
2019-01-20T02:47:52.820Z,116.77
2019-01-20T02:50:20.289Z,112.23
2019-01-20T02:52:47.766Z,111.70
2019-01-20T02:55:16.806Z,110.93
2019-01-20T02:57:44.320Z,110.17
2019-01-20T03:00:13.448Z,107.23
2019-01-20T03:02:41.012Z,107.53
2019-01-20T03:05:10.054Z,107.73
2019-01-20T03:07:37.695Z,102.17
2019-01-20T03:10:08.340Z,104.53
2019-01-20T03:12:36.362Z,93.43
2019-01-20T03:15:07.076Z,97.50
2019-01-20T03:17:34.489Z,93.30
2019-01-20T03:20:02.040Z,91.47
2019-01-20T03:22:29.550Z,94.03
2019-01-20T03:24:57.001Z,86.80
2019-01-20T03:27:24.484Z,87.50
2019-01-20T03:29:51.887Z,91.00
2019-01-20T03:32:19.385Z,92.13
2019-01-20T03:34:48.390Z,89.30
2019-01-20T03:37:17.558Z,91.03
2019-01-20T03:39:45.532Z,93.10
2019-01-20T03:42:13.099Z,99.33
2019-01-20T03:44:40.535Z,103.40
2019-01-20T03:47:08.062Z,103.80
2019-01-20T03:49:35.530Z,104.93
2019-01-20T03:52:05.592Z,104.40
2019-01-20T03:54:34.530Z,103.27
2019-01-20T03:57:02.245Z,106.37
2019-01-20T03:59:29.717Z,105.33
2019-01-20T04:01:57.311Z,104.20
2019-01-20T04:04:24.819Z,102.57
2019-01-20T04:06:52.619Z,102.80
2019-01-20T04:09:20.023Z,106.70
2019-01-20T04:11:47.449Z,103.77
2019-01-20T04:14:14.941Z,112.63
2019-01-20T04:16:42.454Z,106.43
2019-01-20T04:19:10.880Z,101.17
2019-01-20T04:21:38.387Z,102.97
2019-01-20T04:24:05.823Z,102.73
2019-01-20T04:26:33.308Z,104.50
2019-01-20T04:29:00.746Z,104.90
2019-01-20T04:31:28.487Z,110.67
2019-01-20T04:33:55.985Z,111.70
2019-01-20T04:36:23.441Z,109.43
2019-01-20T04:38:51.081Z,112.50
2019-01-20T04:41:18.622Z,111.40
2019-01-20T04:43:46.125Z,115.40
2019-01-20T04:46:13.660Z,120.00
2019-01-20T04:48:41.188Z,120.03
2019-01-20T04:51:08.797Z,123.03
2019-01-20T04:53:36.822Z,121.50
2019-01-20T04:56:07.337Z,122.43
2019-01-20T04:58:36.495Z,122.37
2019-01-20T05:01:04.031Z,122.60
2019-01-20T05:03:31.612Z,121.87
2019-01-20T05:05:59.239Z,118.50
2019-01-20T05:08:26.737Z,119.70
2019-01-20T05:10:54.215Z,121.17
2019-01-20T05:13:21.688Z,113.93
2019-01-20T05:15:49.203Z,115.70
2019-01-20T05:18:17.083Z,115.47
2019-01-20T05:20:46.079Z,101.70
2019-01-20T05:23:13.697Z,116.47
2019-01-20T05:25:41.586Z,114.73
2019-01-20T05:28:09.019Z,119.10
2019-01-20T05:30:36.453Z,114.27
2019-01-20T05:33:03.931Z,113.57
2019-01-20T05:35:31.431Z,114.03
2019-01-20T05:37:58.874Z,118.93
2019-01-20T05:40:28.020Z,111.03
2019-01-20T05:42:55.479Z,114.67
2019-01-20T05:45:23.884Z,121.30
2019-01-20T05:47:51.360Z,124.80
2019-01-20T05:50:18.901Z,124.57
2019-01-20T05:52:47.555Z,129.33
2019-01-20T05:55:15.254Z,127.13
2019-01-20T05:57:42.614Z,124.87
2019-01-20T06:00:11.731Z,127.63
2019-01-20T06:02:39.179Z,123.20
2019-01-20T06:05:06.866Z,126.10
2019-01-20T06:07:34.357Z,124.93
2019-01-20T06:10:02.395Z,119.40
2019-01-20T06:12:31.577Z,115.10
2019-01-20T06:15:02.715Z,108.77
2019-01-20T06:17:30.551Z,107.00
2019-01-20T06:19:58.533Z,106.43
2019-01-20T06:22:26.059Z,100.07
2019-01-20T06:24:56.988Z,97.53
2019-01-20T06:27:24.594Z,106.00
2019-01-20T06:29:52.053Z,106.50
2019-01-20T06:32:20.051Z,97.87
2019-01-20T06:34:48.905Z,102.33
2019-01-20T06:37:16.442Z,101.17
2019-01-20T06:39:44.023Z,100.93
2019-01-20T06:42:11.480Z,94.87
2019-01-20T06:44:38.956Z,100.20
2019-01-20T06:47:07.190Z,95.73
2019-01-20T06:49:35.441Z,93.27
2019-01-20T06:52:04.033Z,98.53
2019-01-20T06:54:38.824Z,101.27
2019-01-20T06:57:06.209Z,101.13
2019-01-20T06:59:34.347Z,118.30
2019-01-20T07:02:01.760Z,128.30
2019-01-20T07:04:29.262Z,119.20
2019-01-20T07:06:56.606Z,118.57
2019-01-20T07:09:25.214Z,123.70
2019-01-20T07:11:52.646Z,119.93
2019-01-20T07:14:20.312Z,116.77
2019-01-20T07:16:47.696Z,119.30
2019-01-20T07:19:15.317Z,113.50
2019-01-20T07:21:42.916Z,108.17
2019-01-20T07:24:11.738Z,99.33
2019-01-20T07:26:39.343Z,103.47
2019-01-20T07:29:06.884Z,103.93
2019-01-20T07:31:34.306Z,100.13
2019-01-20T07:34:01.790Z,98.17
2019-01-20T07:36:30.846Z,93.83
2019-01-20T07:38:59.891Z,98.90
2019-01-20T07:41:27.543Z,103.57
2019-01-20T07:44:00.156Z,100.47
2019-01-20T07:46:27.689Z,102.13
2019-01-20T07:48:55.212Z,105.13
2019-01-20T07:51:22.828Z,102.53
2019-01-20T07:53:50.390Z,98.30
2019-01-20T07:56:39.114Z,98.27
2019-01-20T07:59:07.307Z,93.97
2019-01-20T08:01:34.914Z,96.33
2019-01-20T08:04:02.378Z,91.10
2019-01-20T08:06:31.165Z,91.17
2019-01-20T08:08:58.597Z,90.27
2019-01-20T08:11:27.647Z,93.90
2019-01-20T08:13:57.878Z,89.40
2019-01-20T08:16:25.488Z,88.40
2019-01-20T08:18:53.022Z,88.83
2019-01-20T08:21:20.681Z,91.73
2019-01-20T08:23:48.150Z,85.80
2019-01-20T08:26:17.536Z,84.97
2019-01-20T08:28:47.186Z,88.20
2019-01-20T08:31:15.542Z,95.60
2019-01-20T08:33:50.698Z,86.37
2019-01-20T08:38:48.056Z,95.27
2019-01-20T08:41:17.327Z,93.67
2019-01-20T08:43:46.698Z,95.57
2019-01-20T08:46:18.661Z,96.03
2019-01-20T08:48:48.834Z,95.63
2019-01-20T08:51:19.518Z,95.97
2019-01-20T08:53:47.367Z,91.80
2019-01-20T08:56:14.946Z,90.60
2019-01-20T08:58:42.611Z,89.87
2019-01-20T09:01:10.104Z,90.13
2019-01-20T09:03:38.748Z,90.87
2019-01-20T09:06:06.288Z,82.10
2019-01-20T09:08:35.971Z,81.27
2019-01-20T09:11:05.097Z,81.10
2019-01-20T09:13:39.795Z,78.40
2019-01-20T09:16:55.669Z,82.63
2019-01-20T09:22:21.937Z,87.40
2019-01-20T09:27:47.286Z,94.83
2019-01-20T09:30:22.148Z,101.87
2019-01-20T09:32:51.221Z,101.43
2019-01-20T09:35:18.964Z,100.30
2019-01-20T09:37:46.561Z,94.60
2019-01-20T09:40:18.004Z,94.93
2019-01-20T09:42:45.490Z,95.67
2019-01-20T09:45:17.750Z,94.97
2019-01-20T09:47:46.863Z,95.60
2019-01-20T09:50:19.068Z,98.20
2019-01-20T09:52:55.683Z,96.00
2019-01-20T09:57:59.147Z,96.10
2019-01-20T10:16:30.165Z,99.40
2019-01-20T10:18:59.249Z,97.53
2019-01-20T10:21:26.824Z,112.80
2019-01-20T10:23:58.023Z,105.27
2019-01-20T10:26:26.924Z,102.77
2019-01-20T10:29:26.624Z,118.27
2019-01-20T10:32:05.267Z,119.73
2019-01-20T10:34:33.472Z,120.17
2019-01-20T10:37:01.767Z,120.43
2019-01-20T10:39:30.925Z,123.10
2019-01-20T10:42:00.221Z,101.97
2019-01-20T10:44:36.735Z,100.00
2019-01-20T10:47:05.910Z,98.73
2019-01-20T10:52:37.155Z,94.30
2019-01-20T10:55:05.451Z,110.33
2019-01-20T10:57:36.833Z,104.80
2019-01-20T11:00:24.280Z,93.87
2019-01-20T11:02:53.165Z,91.07
2019-01-20T11:05:25.056Z,88.87
2019-01-20T11:20:22.985Z,83.33
2019-01-20T11:22:56.610Z,92.43
2019-01-20T11:31:03.878Z,92.27
2019-01-20T11:33:32.999Z,92.13
2019-01-20T11:36:09.506Z,88.20
2019-01-20T11:41:44.589Z,87.57
2019-01-20T11:44:45.557Z,86.70
2019-01-20T11:47:17.971Z,84.67
2019-01-20T11:50:13.242Z,79.23
2019-01-20T11:52:31.297Z,76.93
2019-01-20T11:55:07.242Z,79.17
2019-01-20T11:57:35.637Z,105.23
2019-01-20T12:00:07.534Z,123.43
2019-01-20T12:02:36.267Z,101.40
2019-01-20T12:05:10.315Z,72.63
2019-01-20T12:07:38.751Z,73.97
2019-01-20T12:10:07.412Z,72.10
2019-01-20T12:12:37.705Z,73.90
2019-01-20T12:15:23.815Z,58.73
2019-01-20T12:17:51.667Z,55.23
2019-01-20T12:23:38.630Z,52.50
2019-01-20T12:26:22.413Z,56.50
2019-01-20T12:31:52.410Z,71.17
2019-01-20T12:34:33.735Z,56.53
2019-01-20T12:37:01.293Z,56.63
2019-01-20T12:39:29.828Z,53.00
2019-01-20T12:42:01.120Z,53.50
2019-01-20T12:44:31.531Z,48.93
2019-01-20T12:46:59.209Z,45.13
2019-01-20T12:49:27.535Z,41.60
2019-01-20T12:52:01.384Z,42.27
2019-01-20T12:54:37.057Z,41.50
2019-01-20T12:57:04.596Z,38.07
2019-01-20T12:59:32.477Z,43.00
2019-01-20T13:02:01.047Z,40.50
2019-01-20T13:04:32.972Z,43.03
2019-01-20T13:07:01.389Z,41.30
2019-01-20T13:09:29.052Z,38.80
2019-01-20T13:11:57.201Z,32.67
2019-01-20T13:14:25.125Z,38.27
2019-01-20T13:16:53.764Z,38.43
2019-01-20T13:19:21.356Z,36.47
2019-01-20T13:21:48.768Z,41.23
2019-01-20T13:24:16.297Z,44.07
2019-01-20T13:26:43.913Z,43.03
2019-01-20T13:29:18.742Z,43.83
2019-01-20T13:31:46.304Z,45.43
2019-01-20T13:34:13.812Z,46.97
2019-01-20T13:36:41.220Z,45.90
2019-01-20T13:39:09.774Z,47.03
2019-01-20T13:41:37.226Z,52.73
2019-01-20T13:44:04.738Z,56.13
2019-01-20T13:46:33.150Z,57.53
2019-01-20T13:49:01.292Z,58.87
2019-01-20T13:51:31.698Z,58.07
2019-01-20T13:54:00.384Z,57.60
2019-01-20T13:56:29.248Z,58.87
2019-01-20T13:58:58.952Z,60.40
2019-01-20T14:01:26.309Z,59.00
2019-01-20T14:03:53.663Z,62.40
2019-01-20T14:06:21.258Z,63.37
2019-01-20T14:08:51.568Z,67.20
2019-01-20T14:11:27.952Z,94.20
2019-01-20T14:13:55.472Z,116.10
2019-01-20T14:16:26.557Z,136.47
2019-01-20T14:18:54.026Z,152.77
2019-01-20T14:21:23.174Z,160.30
2019-01-20T14:23:50.716Z,162.77
2019-01-20T14:26:19.150Z,169.40
2019-01-20T14:28:46.771Z,176.40
2019-01-20T14:31:14.212Z,181.37
2019-01-20T14:33:41.690Z,173.63
2019-01-20T14:36:09.558Z,180.00
2019-01-20T14:38:39.344Z,182.93
2019-01-20T14:41:06.828Z,194.77
2019-01-20T14:43:34.286Z,188.47
2019-01-20T14:46:03.008Z,183.53
2019-01-20T14:48:32.183Z,192.70
2019-01-20T14:50:59.916Z,193.40
2019-01-20T14:53:27.360Z,192.50
2019-01-20T14:55:57.492Z,191.60
2019-01-20T14:58:26.580Z,190.27
2019-01-20T15:00:53.964Z,192.83
2019-01-20T15:03:31.512Z,190.93
2019-01-20T15:11:45.242Z,232.00
2019-01-20T15:14:16.057Z,244.40
2019-01-20T15:28:16.766Z,212.50
2019-01-20T15:30:45.822Z,225.90
2019-01-20T15:33:25.531Z,229.13
2019-01-20T15:36:07.386Z,221.57
2019-01-20T15:38:34.928Z,232.07
2019-01-20T15:41:02.571Z,225.07
2019-01-20T15:43:30.106Z,215.27
2019-01-20T15:45:59.063Z,212.30
2019-01-20T15:48:27.173Z,220.13
2019-01-20T15:50:55.422Z,224.70
2019-01-20T15:53:23.494Z,188.43
2019-01-20T15:55:51.164Z,200.27
2019-01-20T15:58:26.718Z,190.90
2019-01-20T16:00:54.414Z,169.80
2019-01-20T16:03:29.099Z,157.40
2019-01-20T16:06:02.712Z,167.27
2019-01-20T16:08:30.073Z,173.47
2019-01-20T16:10:57.614Z,178.97
2019-01-20T16:13:26.769Z,170.77
2019-01-20T16:15:54.350Z,172.17
2019-01-20T16:18:21.808Z,147.90
2019-01-20T16:20:49.265Z,139.17
2019-01-20T16:23:16.927Z,147.80
2019-01-20T16:25:44.779Z,143.17
2019-01-20T16:28:14.185Z,145.40
2019-01-20T16:30:41.509Z,146.83
2019-01-20T16:33:08.935Z,152.00
2019-01-20T16:35:36.463Z,180.57
2019-01-20T16:38:04.017Z,188.97
2019-01-20T16:40:31.492Z,220.37
2019-01-20T16:42:59.005Z,212.80
2019-01-20T16:45:32.850Z,212.13
2019-01-20T16:47:56.994Z,206.10
2019-01-20T16:50:25.036Z,194.23
2019-01-20T16:52:55.173Z,215.10
2019-01-20T16:55:22.973Z,254.53
2019-01-20T16:57:51.828Z,246.13
2019-01-20T17:00:21.066Z,250.47
2019-01-20T17:02:48.533Z,366.97
2019-01-20T17:05:16.142Z,366.43
2019-01-20T17:07:43.683Z,426.87
2019-01-20T17:10:12.937Z,625.83
2019-01-20T17:12:40.610Z,228.67
2019-01-20T17:15:10.804Z,155.93
2019-01-20T17:17:38.380Z,195.07
2019-01-20T17:20:08.738Z,239.23
2019-01-20T17:22:36.351Z,183.90
2019-01-20T17:25:05.677Z,207.90
2019-01-20T17:27:33.227Z,239.50
2019-01-20T17:30:00.822Z,179.53
2019-01-20T17:32:33.154Z,162.63
2019-01-20T17:35:00.807Z,143.63
2019-01-20T17:37:28.475Z,162.93
2019-01-20T17:39:56.000Z,175.13
2019-01-20T17:42:23.501Z,151.80
2019-01-20T17:44:51.014Z,143.30
2019-01-20T17:47:19.832Z,159.07
2019-01-20T17:49:47.332Z,167.43
2019-01-20T17:52:14.922Z,173.57
2019-01-20T17:54:42.442Z,184.47
2019-01-20T17:57:09.900Z,191.87
2019-01-20T17:59:37.328Z,196.90
2019-01-20T18:02:04.885Z,216.97
2019-01-20T18:04:32.442Z,217.17
2019-01-20T18:06:59.904Z,215.63
2019-01-20T18:09:29.210Z,222.03
2019-01-20T18:11:56.762Z,211.43
2019-01-20T18:14:26.284Z,210.97
2019-01-20T18:16:58.348Z,203.70
2019-01-20T18:19:25.824Z,211.73
2019-01-20T18:21:53.363Z,205.63
2019-01-20T18:24:20.848Z,201.20
2019-01-20T18:26:48.487Z,154.30
2019-01-20T18:29:16.018Z,169.80
2019-01-20T18:31:43.572Z,196.30
2019-01-20T18:34:11.220Z,221.90
2019-01-20T18:36:38.824Z,292.50
2019-01-20T18:39:06.723Z,304.03
2019-01-20T18:41:35.629Z,308.27
2019-01-20T18:44:03.275Z,282.60
2019-01-20T18:46:31.158Z,284.03
2019-01-20T18:49:00.315Z,271.77
2019-01-20T18:51:27.900Z,283.50
2019-01-20T18:53:55.458Z,256.40
2019-01-20T18:56:23.066Z,267.47
2019-01-20T18:58:52.363Z,265.53
2019-01-20T19:01:19.792Z,261.83
2019-01-20T19:03:47.370Z,262.57
2019-01-20T19:06:14.878Z,215.93
2019-01-20T19:08:42.420Z,242.73
2019-01-20T19:11:09.956Z,241.83
2019-01-20T19:13:39.120Z,235.83
2019-01-20T19:16:09.772Z,248.63
2019-01-20T19:18:37.323Z,245.23
2019-01-20T19:21:04.906Z,244.67
2019-01-20T19:23:34.902Z,250.00
2019-01-20T19:26:04.256Z,243.50
2019-01-20T19:28:31.776Z,253.23
2019-01-20T19:30:59.533Z,256.70
2019-01-20T19:33:27.180Z,243.60
2019-01-20T19:35:57.625Z,242.37
2019-01-20T19:38:26.479Z,228.30
2019-01-20T19:40:53.933Z,221.43
2019-01-20T19:43:23.086Z,224.57
2019-01-20T19:45:50.642Z,221.13
2019-01-20T19:48:20.167Z,212.33
2019-01-20T19:50:50.136Z,213.73
2019-01-20T19:53:18.270Z,210.77
2019-01-20T19:55:48.998Z,211.33
2019-01-20T19:58:16.456Z,208.73
2019-01-20T20:00:44.017Z,198.03
2019-01-20T20:03:11.666Z,195.13
2019-01-20T20:05:40.308Z,172.33
2019-01-20T20:08:07.826Z,151.67
2019-01-20T20:10:35.350Z,157.83
2019-01-20T20:13:02.890Z,160.73
2019-01-20T20:15:30.404Z,162.27
2019-01-20T20:17:57.760Z,170.53
2019-01-20T20:20:25.976Z,165.03
2019-01-20T20:22:53.670Z,164.97
2019-01-20T20:25:22.156Z,164.77
2019-01-20T20:27:49.822Z,169.83
2019-01-20T20:30:22.260Z,165.30
2019-01-20T20:32:49.866Z,161.33
2019-01-20T20:35:18.728Z,165.07
2019-01-20T20:37:46.233Z,164.03
2019-01-20T20:40:14.917Z,167.93
2019-01-20T20:42:44.076Z,170.30
2019-01-20T20:45:13.158Z,168.70
2019-01-20T20:47:40.690Z,168.20
2019-01-20T20:50:09.767Z,168.97
2019-01-20T20:52:37.341Z,162.87
2019-01-20T20:55:06.925Z,162.93
2019-01-20T20:57:34.572Z,168.67
2019-01-20T21:00:02.222Z,185.00
2019-01-20T21:02:42.699Z,186.10
2019-01-20T21:05:15.203Z,197.70
2019-01-20T21:07:51.897Z,189.97
2019-01-20T21:10:19.440Z,200.37
2019-01-20T21:12:55.825Z,206.37
2019-01-20T21:15:26.636Z,193.30
2019-01-20T21:17:57.372Z,194.17
2019-01-20T21:20:24.873Z,193.10
2019-01-20T21:22:53.888Z,200.67
2019-01-20T21:25:21.427Z,199.70
2019-01-20T21:27:48.991Z,193.10
2019-01-20T21:30:18.080Z,204.43
2019-01-20T21:32:48.820Z,213.23
2019-01-20T21:35:16.330Z,215.77
2019-01-20T21:37:43.936Z,235.97
2019-01-20T21:40:15.545Z,231.20
2019-01-20T21:42:43.073Z,228.10
2019-01-20T21:45:11.281Z,244.00
2019-01-20T21:47:38.901Z,288.43
2019-01-20T21:50:19.820Z,308.93
2019-01-20T21:52:48.148Z,300.33
2019-01-20T21:55:15.594Z,300.00
2019-01-20T21:57:43.273Z,310.53
2019-01-20T22:00:13.371Z,306.67
2019-01-20T22:02:42.469Z,304.33
2019-01-20T22:05:10.489Z,290.80
2019-01-20T22:07:39.521Z,277.40
2019-01-20T22:10:08.617Z,271.17
2019-01-20T22:12:36.143Z,254.03
2019-01-20T22:15:04.563Z,249.47
2019-01-20T22:17:32.101Z,228.40
2019-01-20T22:20:00.263Z,254.03
2019-01-20T22:22:29.187Z,307.83
2019-01-20T22:24:56.729Z,266.97
2019-01-20T22:27:24.284Z,252.30
2019-01-20T22:29:51.745Z,257.63
2019-01-20T22:32:20.123Z,256.80
2019-01-20T22:34:47.683Z,255.60
2019-01-20T22:37:15.135Z,247.57
2019-01-20T22:39:44.556Z,243.17
2019-01-20T22:42:11.996Z,244.60
2019-01-20T22:44:39.769Z,242.90
2019-01-20T22:47:07.230Z,247.30
2019-01-20T22:49:35.029Z,244.67
2019-01-20T22:52:05.014Z,240.83
2019-01-20T22:54:32.532Z,268.30
2019-01-20T22:57:00.016Z,255.03
2019-01-20T22:59:27.598Z,273.97
2019-01-20T23:01:57.564Z,256.03
2019-01-20T23:04:25.060Z,251.67
2019-01-20T23:06:52.671Z,254.47
2019-01-20T23:09:20.183Z,252.80
2019-01-20T23:11:47.629Z,248.33
2019-01-20T23:14:15.473Z,233.43
2019-01-20T23:16:43.027Z,224.67
2019-01-20T23:19:10.503Z,223.83
2019-01-20T23:21:38.062Z,220.87
2019-01-20T23:24:05.927Z,214.30
2019-01-20T23:26:33.675Z,225.77
2019-01-20T23:29:01.124Z,212.30
2019-01-20T23:31:28.592Z,226.43
2019-01-20T23:33:57.111Z,224.63
2019-01-20T23:36:24.619Z,219.70
2019-01-20T23:38:53.713Z,223.27
2019-01-20T23:41:21.327Z,215.63
2019-01-20T23:43:48.871Z,228.40
2019-01-20T23:46:16.370Z,222.77
2019-01-20T23:48:43.947Z,223.73
2019-01-20T23:51:11.378Z,225.93
2019-01-20T23:53:39.011Z,218.90
2019-01-20T23:56:06.693Z,237.50
2019-01-20T23:58:34.197Z,243.30
